Lewellen, Nebraska
Current Conditions -  °F | °C
As of 6:55 AM on Monday 22 Dec 2014 (Local Time) from KOGA Reporting Station
Overcast Overcast  
Wind Chill: 28°   Ceiling: 8000
Heat Index: 37°   Visibility: 10mi
Dew Point: 31°   Wind: 16mph
Humidity: 80%   Direction: 290°WNW
Pressure: 29.63"   Gusts: NA
Location:  41.33°N, 102.14°W
Report Text: KOGA 221355Z AUTO 29014KT 10SM OVC080 03/00 A2963 RMK AO2 T00291003
Loading
Personal Weather Stations






























Interactive Weather Map New forecast layout! Learn more

10-Day Weather Forecast

Advertisements
Track Severe Weather on mobile